createdAt,value
2022-10-25T00:01:21.768Z,22.44
2022-10-25T00:03:50.378Z,22.44
2022-10-25T00:06:20.324Z,22.43
2022-10-25T00:08:49.250Z,22.42
2022-10-25T00:11:20.907Z,22.43
2022-10-25T00:13:50.866Z,22.44
2022-10-25T00:16:22.182Z,22.42
2022-10-25T00:18:50.679Z,22.44
2022-10-25T00:21:20.569Z,22.42
2022-10-25T00:23:49.693Z,22.43
2022-10-25T00:26:18.327Z,22.42
2022-10-25T00:28:47.025Z,22.42
2022-10-25T00:31:18.208Z,22.42
2022-10-25T00:33:46.842Z,22.42
2022-10-25T00:36:17.983Z,22.41
2022-10-25T00:38:48.238Z,22.42
2022-10-25T00:41:19.316Z,22.41
2022-10-25T00:43:50.128Z,22.41
2022-10-25T00:46:24.394Z,22.41
2022-10-25T00:48:57.714Z,22.42
2022-10-25T00:51:30.642Z,22.41
2022-10-25T00:54:00.623Z,22.41
2022-10-25T00:56:33.015Z,22.41
2022-10-25T00:59:04.973Z,22.41
2022-10-25T01:01:33.897Z,22.41
2022-10-25T01:04:08.582Z,22.42
2022-10-25T01:06:40.333Z,22.42
2022-10-25T01:09:11.744Z,22.41
2022-10-25T01:11:40.150Z,22.40
2022-10-25T01:14:11.674Z,22.39
2022-10-25T01:16:48.844Z,22.40
2022-10-25T01:19:37.222Z,22.40
2022-10-25T01:22:10.234Z,22.41
2022-10-25T01:25:04.103Z,22.40
2022-10-25T01:27:49.125Z,22.40
2022-10-25T01:30:21.223Z,22.39
2022-10-25T01:33:09.038Z,22.39
2022-10-25T01:35:46.411Z,22.40
2022-10-25T01:38:34.204Z,22.39
2022-10-25T01:41:16.249Z,22.40
2022-10-25T01:43:56.649Z,22.39
2022-10-25T01:46:30.149Z,22.39
2022-10-25T01:49:05.144Z,22.37
2022-10-25T01:51:37.124Z,22.38
2022-10-25T01:54:18.976Z,22.39
2022-10-25T01:56:59.065Z,22.38
2022-10-25T01:59:44.324Z,22.38
2022-10-25T02:02:19.575Z,22.38
2022-10-25T02:04:59.391Z,22.38
2022-10-25T02:07:35.061Z,22.38
2022-10-25T02:10:07.484Z,22.38
2022-10-25T02:12:47.388Z,22.39
2022-10-25T02:15:22.438Z,22.38
2022-10-25T02:17:57.612Z,22.38
2022-10-25T02:20:29.847Z,22.39
2022-10-25T02:23:01.555Z,22.39
2022-10-25T02:25:32.749Z,22.39
2022-10-25T02:28:02.679Z,22.39
2022-10-25T02:30:34.756Z,22.40
2022-10-25T02:33:03.360Z,22.39
2022-10-25T02:35:33.349Z,22.39
2022-10-25T02:38:02.539Z,22.38
2022-10-25T02:40:31.373Z,22.38
2022-10-25T02:47:37.972Z,22.38
2022-10-25T02:50:06.965Z,22.37
2022-10-25T02:52:36.781Z,22.38
2022-10-25T02:55:05.893Z,22.38
2022-10-25T02:57:34.922Z,22.39
2022-10-25T03:00:04.134Z,22.37
2022-10-25T03:02:32.722Z,22.37
2022-10-25T03:05:01.165Z,22.37
2022-10-25T03:07:29.631Z,22.35
2022-10-25T03:09:59.425Z,22.37
2022-10-25T03:12:27.875Z,22.38
2022-10-25T03:14:56.281Z,22.36
2022-10-25T03:17:24.638Z,22.35
2022-10-25T03:19:53.608Z,22.37
2022-10-25T03:22:21.971Z,22.37
2022-10-25T03:24:50.352Z,22.37
2022-10-25T03:27:20.159Z,22.37
2022-10-25T03:29:48.564Z,22.37
2022-10-25T03:32:16.964Z,22.38
2022-10-25T03:34:45.364Z,22.37
2022-10-25T03:37:13.746Z,22.37
2022-10-25T03:39:42.200Z,22.37
2022-10-25T03:42:10.583Z,22.37
2022-10-25T03:44:40.418Z,22.37
2022-10-25T03:47:08.812Z,22.37
2022-10-25T03:49:37.292Z,22.37
2022-10-25T03:52:07.200Z,22.37
2022-10-25T03:54:35.809Z,22.36
2022-10-25T03:57:05.316Z,22.35
2022-10-25T03:59:33.892Z,22.37
2022-10-25T04:02:03.727Z,22.35
2022-10-25T04:04:32.177Z,22.35
2022-10-25T04:07:00.592Z,22.36
2022-10-25T04:09:29.062Z,22.36
2022-10-25T04:11:57.559Z,22.37
2022-10-25T04:14:26.132Z,22.37
2022-10-25T04:16:54.563Z,22.35
2022-10-25T04:19:24.331Z,22.35
2022-10-25T04:21:52.769Z,22.37
2022-10-25T04:24:22.599Z,22.37
2022-10-25T04:26:51.070Z,22.37
2022-10-25T04:29:19.982Z,22.37
2022-10-25T04:31:48.442Z,22.37
2022-10-25T04:34:17.024Z,22.35
2022-10-25T04:36:46.852Z,22.36
2022-10-25T04:39:15.290Z,22.35
2022-10-25T04:41:43.788Z,22.37
2022-10-25T04:44:12.410Z,22.35
2022-10-25T04:46:43.986Z,22.35
2022-10-25T04:49:15.709Z,22.35
2022-10-25T04:51:44.540Z,22.37
2022-10-25T04:54:14.459Z,22.37
2022-10-25T04:56:42.908Z,22.34
2022-10-25T04:59:11.552Z,22.32
2022-10-25T05:01:40.198Z,22.31
2022-10-25T05:04:08.747Z,22.32
2022-10-25T05:06:37.141Z,22.33
2022-10-25T05:09:05.941Z,22.35
2022-10-25T05:14:05.062Z,22.34
2022-10-25T05:16:35.057Z,22.33
2022-10-25T05:19:03.805Z,22.34
2022-10-25T05:21:32.182Z,22.35
2022-10-25T05:24:02.243Z,22.35
2022-10-25T05:26:31.765Z,22.34
2022-10-25T05:29:01.918Z,22.32
2022-10-25T05:31:31.851Z,22.33
2022-10-25T05:34:01.735Z,22.34
2022-10-25T05:36:30.421Z,22.33
2022-10-25T05:39:00.807Z,22.35
2022-10-25T05:41:31.893Z,22.33
2022-10-25T05:44:05.002Z,22.31
2022-10-25T05:46:33.495Z,22.33
2022-10-25T05:49:02.226Z,22.32
2022-10-25T05:51:35.138Z,22.35
2022-10-25T05:54:06.634Z,22.32
2022-10-25T05:56:36.541Z,22.32
2022-10-25T05:59:08.848Z,22.32
2022-10-25T06:01:39.600Z,22.34
2022-10-25T06:04:08.990Z,22.37
2022-10-25T06:06:37.927Z,22.40
2022-10-25T06:09:07.668Z,22.41
2022-10-25T06:11:36.591Z,22.44
2022-10-25T06:14:07.137Z,22.45
2022-10-25T06:16:37.916Z,22.46
2022-10-25T06:19:06.405Z,22.47
2022-10-25T06:21:34.827Z,22.48
2022-10-25T06:24:04.203Z,22.49
2022-10-25T06:26:32.690Z,22.51
2022-10-25T06:29:02.668Z,22.53
2022-10-25T06:31:33.835Z,22.53
2022-10-25T06:34:02.638Z,22.54
2022-10-25T06:36:32.086Z,22.57
2022-10-25T06:39:05.771Z,22.58
2022-10-25T06:41:37.878Z,22.59
2022-10-25T06:44:07.612Z,22.59
2022-10-25T06:47:11.735Z,22.58
2022-10-25T06:49:28.330Z,22.58
2022-10-25T06:51:56.751Z,22.58
2022-10-25T06:54:26.681Z,22.57
2022-10-25T06:56:55.343Z,22.56
2022-10-25T06:59:23.855Z,22.55
2022-10-25T07:01:55.188Z,22.56
2022-10-25T07:04:24.048Z,22.55
2022-10-25T07:06:55.424Z,22.57
2022-10-25T07:09:24.159Z,22.56
2022-10-25T07:11:52.985Z,22.58
2022-10-25T07:14:22.134Z,22.57
2022-10-25T07:16:50.570Z,22.57
2022-10-25T07:19:20.364Z,22.57
2022-10-25T07:21:48.777Z,22.57
2022-10-25T07:24:17.227Z,22.56
2022-10-25T07:26:45.681Z,22.57
2022-10-25T07:29:14.265Z,22.59
2022-10-25T07:31:44.579Z,22.58
2022-10-25T07:34:15.214Z,22.56
2022-10-25T07:36:45.152Z,22.56
2022-10-25T07:39:13.687Z,22.55
2022-10-25T07:41:42.262Z,22.53
2022-10-25T07:44:15.914Z,22.51
2022-10-25T07:46:46.149Z,22.50
2022-10-25T07:49:15.124Z,22.51
2022-10-25T07:51:45.080Z,22.50
2022-10-25T07:54:13.616Z,22.49
2022-10-25T07:56:42.198Z,22.48
2022-10-25T07:59:10.868Z,22.48
2022-10-25T08:01:39.325Z,22.48
2022-10-25T08:04:07.873Z,22.47
2022-10-25T08:06:36.499Z,22.46
2022-10-25T08:09:14.476Z,22.46
2022-10-25T08:11:43.606Z,22.45
2022-10-25T08:14:12.125Z,22.45
2022-10-25T08:16:40.613Z,22.45
2022-10-25T08:19:09.063Z,22.46
2022-10-25T08:21:37.529Z,22.48
2022-10-25T08:24:07.918Z,22.52
2022-10-25T08:26:37.080Z,22.53
2022-10-25T08:29:05.847Z,22.54
2022-10-25T08:31:34.337Z,22.54
2022-10-25T08:34:02.854Z,22.55
2022-10-25T08:36:31.405Z,22.57
2022-10-25T08:39:00.779Z,22.59
2022-10-25T08:41:48.953Z,22.60
2022-10-25T08:44:28.409Z,22.62
2022-10-25T08:47:00.527Z,22.63
2022-10-25T08:49:39.522Z,22.63
2022-10-25T08:52:18.656Z,22.65
2022-10-25T08:54:47.411Z,22.62
2022-10-25T08:57:23.242Z,22.64
2022-10-25T08:59:54.437Z,22.67
2022-10-25T09:02:34.883Z,22.68
2022-10-25T09:05:03.921Z,22.72
2022-10-25T09:07:50.857Z,22.72
2022-10-25T09:10:36.274Z,22.73
2022-10-25T09:13:16.326Z,22.72
2022-10-25T09:15:51.911Z,22.71
2022-10-25T09:18:29.786Z,22.74
2022-10-25T09:20:59.670Z,22.75
2022-10-25T09:23:31.383Z,22.76
2022-10-25T09:26:04.875Z,22.78
2022-10-25T09:28:52.537Z,22.78
2022-10-25T09:31:24.201Z,22.79
2022-10-25T09:34:01.643Z,22.79
2022-10-25T09:36:36.978Z,22.77
2022-10-25T09:39:15.813Z,22.75
2022-10-25T09:41:47.860Z,22.73
2022-10-25T09:44:27.240Z,22.72
2022-10-25T09:46:59.180Z,22.70
2022-10-25T09:49:33.990Z,22.69
2022-10-25T09:52:13.934Z,22.69
2022-10-25T09:54:47.390Z,22.68
2022-10-25T09:57:15.954Z,22.67
2022-10-25T09:59:49.875Z,22.66
2022-10-25T10:02:23.790Z,22.67
2022-10-25T10:04:53.145Z,22.65
2022-10-25T10:07:25.141Z,22.66
2022-10-25T10:09:58.165Z,22.66
2022-10-25T10:12:31.896Z,22.65
2022-10-25T10:15:05.894Z,22.64
2022-10-25T10:17:34.365Z,22.64
2022-10-25T10:20:12.046Z,22.65
2022-10-25T10:25:25.157Z,22.64
2022-10-25T10:27:55.642Z,22.64
2022-10-25T10:30:28.800Z,22.64
2022-10-25T10:33:00.463Z,22.64
2022-10-25T10:35:32.184Z,22.64
2022-10-25T10:38:23.947Z,22.63
2022-10-25T10:40:53.990Z,22.64
2022-10-25T10:43:30.026Z,22.63
2022-10-25T10:46:05.624Z,22.63
2022-10-25T10:48:41.910Z,22.62
2022-10-25T10:51:25.556Z,22.61
2022-10-25T10:54:13.792Z,22.59
2022-10-25T10:56:42.237Z,22.59
2022-10-25T10:59:27.854Z,22.57
2022-10-25T11:01:58.375Z,22.57
2022-10-25T11:04:26.916Z,22.56
2022-10-25T11:07:13.939Z,22.56
2022-10-25T11:09:42.507Z,22.55
2022-10-25T11:12:14.893Z,22.55
2022-10-25T11:14:43.732Z,22.53
2022-10-25T11:17:16.925Z,22.53
2022-10-25T11:20:03.459Z,22.52
2022-10-25T11:22:44.071Z,22.52
2022-10-25T11:25:35.001Z,22.50
2022-10-25T11:28:22.562Z,22.50
2022-10-25T11:31:01.944Z,22.48
2022-10-25T11:33:49.321Z,22.50
2022-10-25T11:36:43.463Z,22.49
2022-10-25T11:39:34.433Z,22.49
2022-10-25T11:42:18.784Z,22.49
2022-10-25T11:45:20.586Z,22.49
2022-10-25T11:48:02.321Z,22.49
2022-10-25T11:50:41.314Z,22.48
2022-10-25T11:53:34.221Z,22.49
2022-10-25T11:56:08.340Z,22.48
2022-10-25T11:58:46.421Z,22.48
2022-10-25T12:01:30.614Z,22.48
2022-10-25T12:04:26.962Z,22.47
2022-10-25T12:07:07.678Z,22.48
2022-10-25T12:09:46.165Z,22.49
2022-10-25T12:12:36.630Z,22.53
2022-10-25T12:15:06.073Z,22.54
2022-10-25T12:17:35.962Z,22.55
2022-10-25T12:20:08.400Z,22.57
2022-10-25T12:22:43.193Z,22.58
2022-10-25T12:27:53.076Z,22.62
2022-10-25T12:32:58.801Z,22.64
2022-10-25T12:35:32.002Z,22.66
2022-10-25T12:38:07.695Z,22.68
2022-10-25T12:40:41.877Z,22.69
2022-10-25T12:43:17.849Z,22.70
2022-10-25T12:45:59.461Z,22.70
2022-10-25T12:48:53.590Z,22.69
2022-10-25T12:51:38.163Z,22.67
2022-10-25T12:54:33.704Z,22.65
2022-10-25T12:57:17.584Z,22.62
2022-10-25T13:00:00.898Z,22.61
2022-10-25T13:02:53.977Z,22.60
2022-10-25T13:05:45.226Z,22.59
2022-10-25T13:08:17.451Z,22.59
2022-10-25T13:10:59.494Z,22.58
2022-10-25T13:13:30.647Z,22.60
2022-10-25T13:16:01.443Z,22.60
2022-10-25T13:18:41.462Z,22.60
2022-10-25T13:21:14.515Z,22.57
2022-10-25T13:24:02.682Z,22.56
2022-10-25T13:26:55.144Z,22.55
2022-10-25T13:29:48.127Z,22.54
2022-10-25T13:32:19.639Z,22.53
2022-10-25T13:34:48.738Z,22.53
2022-10-25T13:37:40.094Z,22.52
2022-10-25T13:40:21.435Z,22.51
2022-10-25T13:43:00.847Z,22.50
2022-10-25T13:45:43.690Z,22.50
2022-10-25T13:48:23.973Z,22.50
2022-10-25T13:50:55.711Z,22.49
2022-10-25T13:53:25.973Z,22.49
2022-10-25T13:56:01.152Z,22.50
2022-10-25T13:58:47.220Z,22.49
2022-10-25T14:01:57.776Z,22.50
2022-10-25T14:04:39.796Z,22.53
2022-10-25T14:07:46.756Z,22.56
2022-10-25T14:10:28.895Z,22.56
2022-10-25T14:13:08.232Z,22.57
2022-10-25T14:15:46.679Z,22.58
2022-10-25T14:18:20.473Z,22.58
2022-10-25T14:20:52.602Z,22.58
2022-10-25T14:23:23.631Z,22.58
2022-10-25T14:25:56.293Z,22.58
2022-10-25T14:28:27.327Z,22.57
2022-10-25T14:30:59.022Z,22.57
2022-10-25T14:33:30.260Z,22.56
2022-10-25T14:36:08.469Z,22.56
2022-10-25T14:38:50.626Z,22.59
2022-10-25T14:41:23.018Z,22.58
2022-10-25T14:43:51.767Z,22.52
2022-10-25T14:46:25.059Z,22.43
2022-10-25T14:48:55.907Z,22.23
2022-10-25T14:51:28.349Z,22.18
2022-10-25T14:53:59.959Z,22.11
2022-10-25T14:56:31.541Z,22.12
2022-10-25T14:59:02.122Z,22.16
2022-10-25T15:01:31.995Z,22.21
2022-10-25T15:04:01.638Z,22.26
2022-10-25T15:06:33.234Z,22.29
2022-10-25T15:09:40.627Z,22.35
2022-10-25T15:12:15.433Z,22.39
2022-10-25T15:14:44.016Z,22.41
2022-10-25T15:17:24.467Z,22.43
2022-10-25T15:20:06.502Z,22.46
2022-10-25T15:22:44.113Z,22.46
2022-10-25T15:25:28.772Z,22.48
2022-10-25T15:27:58.931Z,22.49
2022-10-25T15:30:35.161Z,22.49
2022-10-25T15:33:06.881Z,22.51
2022-10-25T15:35:45.441Z,22.52
2022-10-25T15:38:14.075Z,22.53
2022-10-25T15:40:42.909Z,22.53
2022-10-25T15:43:11.349Z,22.54
2022-10-25T15:45:39.924Z,22.53
2022-10-25T15:48:15.079Z,22.54
2022-10-25T15:50:47.779Z,22.55
2022-10-25T15:53:16.290Z,22.56
2022-10-25T15:55:45.458Z,22.56
2022-10-25T15:58:13.893Z,22.56
2022-10-25T16:00:43.806Z,22.56
2022-10-25T16:03:20.885Z,22.56
2022-10-25T16:05:50.260Z,22.56
2022-10-25T16:08:19.185Z,22.57
2022-10-25T16:10:47.809Z,22.57
2022-10-25T16:13:20.518Z,22.57
2022-10-25T16:15:49.126Z,22.58
2022-10-25T16:18:19.082Z,22.57
2022-10-25T16:20:47.577Z,22.57
2022-10-25T16:23:17.243Z,22.56
2022-10-25T16:25:45.953Z,22.57
2022-10-25T16:28:15.234Z,22.56
2022-10-25T16:30:45.515Z,22.57
2022-10-25T16:33:14.410Z,22.57
2022-10-25T16:35:44.197Z,22.57
2022-10-25T16:38:12.673Z,22.58
2022-10-25T16:40:41.116Z,22.58
2022-10-25T16:43:11.756Z,22.58
2022-10-25T16:45:40.343Z,22.60
2022-10-25T16:48:08.796Z,22.63
2022-10-25T16:50:37.415Z,22.64
2022-10-25T16:53:09.102Z,22.66
2022-10-25T16:55:37.614Z,22.70
2022-10-25T16:58:06.124Z,22.70
2022-10-25T17:00:35.923Z,22.72
2022-10-25T17:03:05.418Z,22.73
2022-10-25T17:05:38.269Z,22.75
2022-10-25T17:08:10.802Z,22.76
2022-10-25T17:10:43.665Z,22.78
2022-10-25T17:13:16.025Z,22.78
2022-10-25T17:15:44.457Z,22.80
2022-10-25T17:18:16.007Z,22.80
2022-10-25T17:20:44.552Z,22.80
2022-10-25T17:23:14.906Z,22.78
2022-10-25T17:25:43.364Z,22.75
2022-10-25T17:28:11.760Z,22.74
2022-10-25T17:30:43.051Z,22.74
2022-10-25T17:33:11.505Z,22.72
2022-10-25T17:35:42.375Z,22.73
2022-10-25T17:38:10.853Z,22.75
2022-10-25T17:40:44.187Z,22.77
2022-10-25T17:43:15.222Z,22.77
2022-10-25T17:45:45.266Z,22.79
2022-10-25T17:48:13.725Z,22.81
2022-10-25T17:50:43.078Z,22.82
2022-10-25T17:53:11.539Z,22.82
2022-10-25T17:55:41.320Z,22.81
2022-10-25T17:58:09.774Z,22.84
2022-10-25T18:00:38.196Z,22.84
2022-10-25T18:03:06.764Z,22.85
2022-10-25T18:05:35.216Z,22.88
2022-10-25T18:08:03.653Z,22.86
2022-10-25T18:10:34.053Z,22.86
2022-10-25T18:13:03.803Z,22.86
2022-10-25T18:15:33.321Z,22.86
2022-10-25T18:18:01.855Z,22.87
2022-10-25T18:20:30.297Z,22.88
2022-10-25T18:22:58.704Z,22.87
2022-10-25T18:25:27.197Z,22.88
2022-10-25T18:27:55.747Z,22.89
2022-10-25T18:30:25.571Z,22.89
2022-10-25T18:32:54.035Z,22.91
2022-10-25T18:35:22.465Z,22.90
2022-10-25T18:37:51.145Z,22.90
2022-10-25T18:40:19.936Z,22.90
2022-10-25T18:42:48.791Z,22.90
2022-10-25T18:45:17.320Z,22.91
2022-10-25T18:47:50.444Z,22.91
2022-10-25T18:50:19.153Z,22.91
2022-10-25T18:52:47.647Z,22.90
2022-10-25T18:55:16.259Z,22.90
2022-10-25T18:57:44.675Z,22.90
2022-10-25T19:00:14.922Z,22.90
2022-10-25T19:02:43.429Z,22.90
2022-10-25T19:05:13.266Z,22.90
2022-10-25T19:07:41.723Z,22.89
2022-10-25T19:10:10.370Z,22.87
2022-10-25T19:12:38.879Z,22.85
2022-10-25T19:15:08.261Z,22.84
2022-10-25T19:17:36.742Z,22.82
2022-10-25T19:20:07.467Z,22.81
2022-10-25T19:22:37.242Z,22.80
2022-10-25T19:25:06.475Z,22.79
2022-10-25T19:27:34.918Z,22.78
2022-10-25T19:30:03.431Z,22.79
2022-10-25T19:32:32.783Z,22.77
2022-10-25T19:35:01.238Z,22.77
2022-10-25T19:37:29.693Z,22.76
2022-10-25T19:39:59.544Z,22.74
2022-10-25T19:42:27.934Z,22.74
2022-10-25T19:44:56.466Z,22.74
2022-10-25T19:47:25.017Z,22.74
2022-10-25T19:49:53.448Z,22.74
2022-10-25T19:52:21.877Z,22.73
2022-10-25T19:54:50.405Z,22.73
2022-10-25T19:57:20.188Z,22.72
2022-10-25T19:59:48.637Z,22.72
2022-10-25T20:02:17.238Z,22.72
2022-10-25T20:04:45.773Z,22.70
2022-10-25T20:07:14.396Z,22.72
2022-10-25T20:09:42.873Z,22.70
2022-10-25T20:12:11.292Z,22.71
2022-10-25T20:14:42.670Z,22.71
2022-10-25T20:17:12.457Z,22.70
2022-10-25T20:19:40.893Z,22.68
2022-10-25T20:22:09.276Z,22.66
2022-10-25T20:24:37.702Z,22.66
2022-10-25T20:27:06.608Z,22.64
2022-10-25T20:29:35.063Z,22.63
2022-10-25T20:32:04.969Z,22.62
2022-10-25T20:34:35.045Z,22.62
2022-10-25T20:37:04.070Z,22.59
2022-10-25T20:39:32.600Z,22.58
2022-10-25T20:42:00.996Z,22.57
2022-10-25T20:44:29.427Z,22.56
2022-10-25T20:46:57.893Z,22.55
2022-10-25T20:49:27.709Z,22.55
2022-10-25T20:51:56.105Z,22.54
2022-10-25T20:54:24.560Z,22.53
2022-10-25T20:56:53.051Z,22.53
2022-10-25T20:59:21.430Z,22.52
2022-10-25T21:01:49.983Z,22.51
2022-10-25T21:04:26.130Z,22.51
2022-10-25T21:07:05.853Z,22.51
2022-10-25T21:09:34.298Z,22.49
2022-10-25T21:12:02.688Z,22.49
2022-10-25T21:14:31.110Z,22.49
2022-10-25T21:16:59.513Z,22.49
2022-10-25T21:19:27.862Z,22.49
2022-10-25T21:21:56.261Z,22.48
2022-10-25T21:24:26.161Z,22.48
2022-10-25T21:26:54.635Z,22.48
2022-10-25T21:29:23.185Z,22.47
2022-10-25T21:31:51.692Z,22.47
2022-10-25T21:34:20.118Z,22.47
2022-10-25T21:36:48.531Z,22.46
2022-10-25T21:39:22.626Z,22.46
2022-10-25T21:41:53.012Z,22.47
2022-10-25T21:44:22.226Z,22.47
2022-10-25T21:46:50.779Z,22.47
2022-10-25T21:49:19.181Z,22.47
2022-10-25T21:51:47.630Z,22.47
2022-10-25T21:54:16.025Z,22.46
2022-10-25T21:56:44.482Z,22.47
2022-10-25T21:59:14.294Z,22.46
2022-10-25T22:01:42.770Z,22.46
2022-10-25T22:04:11.204Z,22.45
2022-10-25T22:06:39.624Z,22.46
2022-10-25T22:09:08.331Z,22.46
2022-10-25T22:11:38.799Z,22.44
2022-10-25T22:14:09.950Z,22.44
2022-10-25T22:16:40.741Z,22.45
2022-10-25T22:19:14.799Z,22.44
2022-10-25T22:21:43.828Z,22.44
2022-10-25T22:24:13.732Z,22.44
2022-10-25T22:26:44.138Z,22.43
2022-10-25T22:29:13.866Z,22.44
2022-10-25T22:31:43.600Z,22.43
2022-10-25T22:34:12.183Z,22.43
2022-10-25T22:36:42.509Z,22.43
2022-10-25T22:39:11.096Z,22.43
2022-10-25T22:41:39.547Z,22.43
2022-10-25T22:44:07.970Z,22.43
2022-10-25T22:46:36.906Z,22.43
2022-10-25T22:49:09.013Z,22.43
2022-10-25T22:51:39.118Z,22.42
2022-10-25T22:54:07.823Z,22.42
2022-10-25T22:56:36.246Z,22.42
2022-10-25T22:59:06.317Z,22.42
2022-10-25T23:01:36.509Z,22.43
2022-10-25T23:04:09.479Z,22.42
2022-10-25T23:06:39.484Z,22.42
2022-10-25T23:09:09.736Z,22.43
2022-10-25T23:11:40.028Z,22.42
2022-10-25T23:14:13.312Z,22.42
2022-10-25T23:16:45.006Z,22.42
2022-10-25T23:19:14.837Z,22.41
2022-10-25T23:21:43.277Z,22.41
2022-10-25T23:24:11.796Z,22.42
2022-10-25T23:26:40.525Z,22.41
2022-10-25T23:29:09.053Z,22.41
2022-10-25T23:31:37.811Z,22.40
2022-10-25T23:34:06.228Z,22.41
2022-10-25T23:36:38.175Z,22.41
2022-10-25T23:39:08.407Z,22.41
2022-10-25T23:41:37.458Z,22.41
2022-10-25T23:44:05.931Z,22.41
2022-10-25T23:46:34.425Z,22.41
2022-10-25T23:49:02.887Z,22.41
2022-10-25T23:51:31.342Z,22.40
2022-10-25T23:54:01.147Z,22.40
2022-10-25T23:56:29.567Z,22.39
2022-10-25T23:58:58.032Z,22.39
